AL03 weather

Alessandria Airport
Alessandria, Piedmont, Italy

Public forecast

Using degrees Celsius for public forecast. Weather courtesy of forecast.io.

Closest aviation weather report (METAR) to Alessandria Airport

Closest report is Genoa Cristoforo Colombo Airport, 32.0 nm (59.3 km) SSE. Retrieved 2020/07/09 23:20 UTC (33 minutes ago):

LIMJ 092320Z VRB02KT CAVOK 23/17 Q1016

Closest aviation forecast (TAF) to Alessandria Airport

Closest forecast is Genoa Cristoforo Colombo Airport, 32.0 nm (59.3 km) SSE. Retrieved 2020/07/09 18:26 UTC (5 hours ago):

TAF LIMJ 091700Z 0918/1018 VRB05KT CAVOK